sensor_id;sensor_type;location;lat;lon;timestamp;P1;durP1;ratioP1;P2;durP2;ratioP2
35114;SDS011;21292;52.416;13.046;2023-04-10T00:01:09;77.07;;;36.10;;
35114;SDS011;21292;52.416;13.046;2023-04-10T00:03:38;78.10;;;37.20;;
35114;SDS011;21292;52.416;13.046;2023-04-10T00:06:07;77.80;;;37.92;;
35114;SDS011;21292;52.416;13.046;2023-04-10T00:08:36;73.82;;;38.13;;
35114;SDS011;21292;52.416;13.046;2023-04-10T00:11:04;78.88;;;38.25;;
35114;SDS011;21292;52.416;13.046;2023-04-10T00:13:33;80.05;;;39.67;;
35114;SDS011;21292;52.416;13.046;2023-04-10T00:16:01;92.40;;;40.28;;
35114;SDS011;21292;52.416;13.046;2023-04-10T00:18:29;83.90;;;39.97;;
35114;SDS011;21292;52.416;13.046;2023-04-10T00:20:57;84.18;;;39.47;;
35114;SDS011;21292;52.416;13.046;2023-04-10T00:23:25;86.28;;;40.85;;
35114;SDS011;21292;52.416;13.046;2023-04-10T00:25:55;81.03;;;40.72;;
35114;SDS011;21292;52.416;13.046;2023-04-10T00:28:23;91.03;;;42.80;;
35114;SDS011;21292;52.416;13.046;2023-04-10T00:30:51;88.18;;;42.58;;
35114;SDS011;21292;52.416;13.046;2023-04-10T00:33:19;88.88;;;41.40;;
35114;SDS011;21292;52.416;13.046;2023-04-10T00:35:47;89.82;;;42.85;;
35114;SDS011;21292;52.416;13.046;2023-04-10T00:38:16;94.93;;;42.92;;
35114;SDS011;21292;52.416;13.046;2023-04-10T00:40:44;95.85;;;45.63;;
35114;SDS011;21292;52.416;13.046;2023-04-10T00:43:13;95.85;;;45.25;;
35114;SDS011;21292;52.416;13.046;2023-04-10T00:45:41;99.40;;;43.85;;
35114;SDS011;21292;52.416;13.046;2023-04-10T00:48:10;100.88;;;45.20;;
35114;SDS011;21292;52.416;13.046;2023-04-10T00:50:38;107.13;;;45.90;;
35114;SDS011;21292;52.416;13.046;2023-04-10T00:53:06;93.43;;;43.80;;
35114;SDS011;21292;52.416;13.046;2023-04-10T00:55:34;103.03;;;44.13;;
35114;SDS011;21292;52.416;13.046;2023-04-10T00:58:02;102.22;;;46.50;;
35114;SDS011;21292;52.416;13.046;2023-04-10T01:00:31;110.63;;;48.90;;
35114;SDS011;21292;52.416;13.046;2023-04-10T01:03:00;101.78;;;48.35;;
35114;SDS011;21292;52.416;13.046;2023-04-10T01:05:29;109.88;;;47.92;;
35114;SDS011;21292;52.416;13.046;2023-04-10T01:08:07;107.43;;;49.70;;
35114;SDS011;21292;52.416;13.046;2023-04-10T01:10:40;118.18;;;50.78;;
35114;SDS011;21292;52.416;13.046;2023-04-10T01:13:14;118.65;;;52.78;;
35114;SDS011;21292;52.416;13.046;2023-04-10T01:15:51;119.47;;;52.90;;
35114;SDS011;21292;52.416;13.046;2023-04-10T01:18:25;123.05;;;53.47;;
35114;SDS011;21292;52.416;13.046;2023-04-10T01:20:58;117.63;;;54.95;;
35114;SDS011;21292;52.416;13.046;2023-04-10T01:23:51;121.03;;;52.25;;
35114;SDS011;21292;52.416;13.046;2023-04-10T01:26:28;119.00;;;54.05;;
35114;SDS011;21292;52.416;13.046;2023-04-10T01:29:05;120.53;;;52.88;;
35114;SDS011;21292;52.416;13.046;2023-04-10T01:31:36;114.53;;;53.10;;
35114;SDS011;21292;52.416;13.046;2023-04-10T01:34:07;110.60;;;55.33;;
35114;SDS011;21292;52.416;13.046;2023-04-10T01:36:39;120.20;;;55.50;;
35114;SDS011;21292;52.416;13.046;2023-04-10T01:39:09;112.22;;;51.88;;
35114;SDS011;21292;52.416;13.046;2023-04-10T01:41:38;124.47;;;55.08;;
35114;SDS011;21292;52.416;13.046;2023-04-10T01:44:09;129.60;;;54.03;;
35114;SDS011;21292;52.416;13.046;2023-04-10T01:46:41;126.07;;;55.58;;
35114;SDS011;21292;52.416;13.046;2023-04-10T01:49:11;140.75;;;58.97;;
35114;SDS011;21292;52.416;13.046;2023-04-10T01:51:39;130.38;;;58.30;;
35114;SDS011;21292;52.416;13.046;2023-04-10T01:54:08;129.10;;;57.47;;
35114;SDS011;21292;52.416;13.046;2023-04-10T01:56:36;132.52;;;59.05;;
35114;SDS011;21292;52.416;13.046;2023-04-10T01:59:04;138.20;;;58.72;;
35114;SDS011;21292;52.416;13.046;2023-04-10T02:01:33;134.45;;;61.53;;
35114;SDS011;21292;52.416;13.046;2023-04-10T02:04:02;140.75;;;59.90;;
35114;SDS011;21292;52.416;13.046;2023-04-10T02:06:33;139.10;;;61.22;;
35114;SDS011;21292;52.416;13.046;2023-04-10T02:09:09;136.90;;;58.88;;
35114;SDS011;21292;52.416;13.046;2023-04-10T02:11:41;135.55;;;57.35;;
35114;SDS011;21292;52.416;13.046;2023-04-10T02:14:15;154.40;;;61.35;;
35114;SDS011;21292;52.416;13.046;2023-04-10T02:16:46;149.32;;;60.25;;
35114;SDS011;21292;52.416;13.046;2023-04-10T02:19:15;139.50;;;61.17;;
35114;SDS011;21292;52.416;13.046;2023-04-10T02:21:45;137.35;;;58.17;;
35114;SDS011;21292;52.416;13.046;2023-04-10T02:24:13;130.80;;;58.70;;
35114;SDS011;21292;52.416;13.046;2023-04-10T02:26:45;140.05;;;57.63;;
35114;SDS011;21292;52.416;13.046;2023-04-10T02:29:13;147.27;;;58.70;;
35114;SDS011;21292;52.416;13.046;2023-04-10T02:31:42;137.07;;;59.47;;
35114;SDS011;21292;52.416;13.046;2023-04-10T02:34:12;132.98;;;61.10;;
35114;SDS011;21292;52.416;13.046;2023-04-10T02:36:40;151.70;;;63.00;;
35114;SDS011;21292;52.416;13.046;2023-04-10T02:39:08;139.70;;;62.22;;
35114;SDS011;21292;52.416;13.046;2023-04-10T02:41:36;152.15;;;59.22;;
35114;SDS011;21292;52.416;13.046;2023-04-10T02:44:04;140.27;;;61.03;;
35114;SDS011;21292;52.416;13.046;2023-04-10T02:46:32;142.25;;;60.88;;
35114;SDS011;21292;52.416;13.046;2023-04-10T02:49:01;140.02;;;60.97;;
35114;SDS011;21292;52.416;13.046;2023-04-10T02:51:32;141.85;;;59.55;;
35114;SDS011;21292;52.416;13.046;2023-04-10T02:54:01;144.45;;;61.03;;
35114;SDS011;21292;52.416;13.046;2023-04-10T02:56:32;140.48;;;59.45;;
35114;SDS011;21292;52.416;13.046;2023-04-10T02:59:00;151.85;;;59.20;;
35114;SDS011;21292;52.416;13.046;2023-04-10T03:01:28;136.73;;;58.60;;
35114;SDS011;21292;52.416;13.046;2023-04-10T03:03:56;134.80;;;58.80;;
35114;SDS011;21292;52.416;13.046;2023-04-10T03:06:25;130.98;;;58.40;;
35114;SDS011;21292;52.416;13.046;2023-04-10T03:08:55;136.18;;;58.35;;
35114;SDS011;21292;52.416;13.046;2023-04-10T03:11:23;146.27;;;59.60;;
35114;SDS011;21292;52.416;13.046;2023-04-10T03:13:51;140.40;;;58.30;;
35114;SDS011;21292;52.416;13.046;2023-04-10T03:16:20;141.88;;;63.17;;
35114;SDS011;21292;52.416;13.046;2023-04-10T03:18:48;139.15;;;60.75;;
35114;SDS011;21292;52.416;13.046;2023-04-10T03:21:16;139.57;;;57.47;;
35114;SDS011;21292;52.416;13.046;2023-04-10T03:23:44;140.55;;;61.40;;
35114;SDS011;21292;52.416;13.046;2023-04-10T03:26:14;141.25;;;58.60;;
35114;SDS011;21292;52.416;13.046;2023-04-10T03:28:42;138.82;;;59.55;;
35114;SDS011;21292;52.416;13.046;2023-04-10T03:31:10;147.05;;;59.63;;
35114;SDS011;21292;52.416;13.046;2023-04-10T03:33:39;145.23;;;58.50;;
35114;SDS011;21292;52.416;13.046;2023-04-10T03:36:07;138.55;;;59.97;;
35114;SDS011;21292;52.416;13.046;2023-04-10T03:38:35;146.63;;;57.60;;
35114;SDS011;21292;52.416;13.046;2023-04-10T03:41:04;128.82;;;56.20;;
35114;SDS011;21292;52.416;13.046;2023-04-10T03:43:34;131.88;;;53.33;;
35114;SDS011;21292;52.416;13.046;2023-04-10T03:46:02;135.57;;;54.95;;
35114;SDS011;21292;52.416;13.046;2023-04-10T03:48:30;134.98;;;55.50;;
35114;SDS011;21292;52.416;13.046;2023-04-10T03:50:59;150.07;;;57.03;;
35114;SDS011;21292;52.416;13.046;2023-04-10T03:53:27;142.43;;;58.90;;
35114;SDS011;21292;52.416;13.046;2023-04-10T03:55:55;130.75;;;55.08;;
35114;SDS011;21292;52.416;13.046;2023-04-10T03:58:23;138.60;;;57.15;;
35114;SDS011;21292;52.416;13.046;2023-04-10T04:00:52;139.02;;;54.80;;
35114;SDS011;21292;52.416;13.046;2023-04-10T04:03:21;133.35;;;56.08;;
35114;SDS011;21292;52.416;13.046;2023-04-10T04:05:49;148.57;;;58.35;;
35114;SDS011;21292;52.416;13.046;2023-04-10T04:08:17;135.55;;;56.00;;
35114;SDS011;21292;52.416;13.046;2023-04-10T04:10:45;122.00;;;52.35;;
35114;SDS011;21292;52.416;13.046;2023-04-10T04:13:14;125.80;;;52.97;;
35114;SDS011;21292;52.416;13.046;2023-04-10T04:15:42;120.60;;;51.10;;
35114;SDS011;21292;52.416;13.046;2023-04-10T04:18:11;140.85;;;56.65;;
35114;SDS011;21292;52.416;13.046;2023-04-10T04:20:39;150.82;;;58.47;;
35114;SDS011;21292;52.416;13.046;2023-04-10T04:23:07;145.88;;;59.60;;
35114;SDS011;21292;52.416;13.046;2023-04-10T04:25:35;147.23;;;57.05;;
35114;SDS011;21292;52.416;13.046;2023-04-10T04:28:03;137.80;;;56.97;;
35114;SDS011;21292;52.416;13.046;2023-04-10T04:30:32;143.50;;;57.50;;
35114;SDS011;21292;52.416;13.046;2023-04-10T04:33:00;127.43;;;54.25;;
35114;SDS011;21292;52.416;13.046;2023-04-10T04:35:29;133.15;;;55.75;;
35114;SDS011;21292;52.416;13.046;2023-04-10T04:37:58;131.45;;;56.63;;
35114;SDS011;21292;52.416;13.046;2023-04-10T04:40:26;134.23;;;55.45;;
35114;SDS011;21292;52.416;13.046;2023-04-10T04:42:54;129.35;;;57.67;;
35114;SDS011;21292;52.416;13.046;2023-04-10T04:45:22;124.97;;;54.42;;
35114;SDS011;21292;52.416;13.046;2023-04-10T04:47:50;149.07;;;56.85;;
35114;SDS011;21292;52.416;13.046;2023-04-10T04:50:18;152.75;;;60.88;;
35114;SDS011;21292;52.416;13.046;2023-04-10T04:52:47;148.38;;;61.03;;
35114;SDS011;21292;52.416;13.046;2023-04-10T04:55:16;141.73;;;61.10;;
35114;SDS011;21292;52.416;13.046;2023-04-10T04:57:44;136.73;;;60.90;;
35114;SDS011;21292;52.416;13.046;2023-04-10T05:00:12;134.05;;;58.25;;
35114;SDS011;21292;52.416;13.046;2023-04-10T05:02:41;139.63;;;60.13;;
35114;SDS011;21292;52.416;13.046;2023-04-10T05:05:09;128.10;;;59.17;;
35114;SDS011;21292;52.416;13.046;2023-04-10T05:07:37;120.78;;;54.97;;
35114;SDS011;21292;52.416;13.046;2023-04-10T05:10:07;113.65;;;55.22;;
35114;SDS011;21292;52.416;13.046;2023-04-10T05:12:35;117.30;;;53.08;;
35114;SDS011;21292;52.416;13.046;2023-04-10T05:15:04;104.13;;;51.47;;
35114;SDS011;21292;52.416;13.046;2023-04-10T05:17:33;88.57;;;47.70;;
35114;SDS011;21292;52.416;13.046;2023-04-10T05:20:01;83.00;;;45.15;;
35114;SDS011;21292;52.416;13.046;2023-04-10T05:22:29;78.65;;;43.42;;
35114;SDS011;21292;52.416;13.046;2023-04-10T05:24:58;70.10;;;41.90;;
35114;SDS011;21292;52.416;13.046;2023-04-10T05:27:27;75.72;;;41.08;;
35114;SDS011;21292;52.416;13.046;2023-04-10T05:29:55;68.20;;;39.75;;
35114;SDS011;21292;52.416;13.046;2023-04-10T05:32:24;67.07;;;38.90;;
35114;SDS011;21292;52.416;13.046;2023-04-10T05:34:52;60.70;;;36.03;;
35114;SDS011;21292;52.416;13.046;2023-04-10T05:37:20;68.05;;;38.42;;
35114;SDS011;21292;52.416;13.046;2023-04-10T05:39:48;63.05;;;35.42;;
35114;SDS011;21292;52.416;13.046;2023-04-10T05:42:16;64.95;;;35.40;;
35114;SDS011;21292;52.416;13.046;2023-04-10T05:44:45;67.97;;;35.58;;
35114;SDS011;21292;52.416;13.046;2023-04-10T05:47:13;72.80;;;33.67;;
35114;SDS011;21292;52.416;13.046;2023-04-10T05:49:41;74.32;;;33.92;;
35114;SDS011;21292;52.416;13.046;2023-04-10T05:52:09;67.55;;;32.63;;
35114;SDS011;21292;52.416;13.046;2023-04-10T05:54:38;65.28;;;33.20;;
35114;SDS011;21292;52.416;13.046;2023-04-10T05:57:06;56.47;;;32.35;;
35114;SDS011;21292;52.416;13.046;2023-04-10T05:59:34;73.03;;;33.55;;
35114;SDS011;21292;52.416;13.046;2023-04-10T06:02:03;80.85;;;34.70;;
35114;SDS011;21292;52.416;13.046;2023-04-10T06:04:31;72.07;;;34.13;;
35114;SDS011;21292;52.416;13.046;2023-04-10T06:07:00;77.68;;;35.42;;
35114;SDS011;21292;52.416;13.046;2023-04-10T06:09:28;80.03;;;35.75;;
35114;SDS011;21292;52.416;13.046;2023-04-10T06:11:56;68.85;;;35.58;;
35114;SDS011;21292;52.416;13.046;2023-04-10T06:14:24;93.07;;;38.88;;
35114;SDS011;21292;52.416;13.046;2023-04-10T06:16:52;81.75;;;38.95;;
35114;SDS011;21292;52.416;13.046;2023-04-10T06:19:22;74.18;;;38.03;;
35114;SDS011;21292;52.416;13.046;2023-04-10T06:21:50;74.70;;;40.00;;
35114;SDS011;21292;52.416;13.046;2023-04-10T06:24:20;77.93;;;39.67;;
35114;SDS011;21292;52.416;13.046;2023-04-10T06:26:48;98.70;;;43.00;;
35114;SDS011;21292;52.416;13.046;2023-04-10T06:29:16;95.13;;;43.20;;
35114;SDS011;21292;52.416;13.046;2023-04-10T06:31:44;100.70;;;41.92;;
35114;SDS011;21292;52.416;13.046;2023-04-10T06:34:12;106.93;;;44.28;;
35114;SDS011;21292;52.416;13.046;2023-04-10T06:36:42;98.18;;;41.78;;
35114;SDS011;21292;52.416;13.046;2023-04-10T06:39:10;84.20;;;40.75;;
35114;SDS011;21292;52.416;13.046;2023-04-10T06:41:38;81.78;;;40.83;;
35114;SDS011;21292;52.416;13.046;2023-04-10T06:44:06;75.60;;;37.65;;
35114;SDS011;21292;52.416;13.046;2023-04-10T06:46:34;87.63;;;37.35;;
35114;SDS011;21292;52.416;13.046;2023-04-10T06:49:02;72.55;;;38.92;;
35114;SDS011;21292;52.416;13.046;2023-04-10T06:51:30;70.63;;;37.50;;
35114;SDS011;21292;52.416;13.046;2023-04-10T06:54:00;66.93;;;35.65;;
35114;SDS011;21292;52.416;13.046;2023-04-10T06:56:28;60.75;;;34.85;;
35114;SDS011;21292;52.416;13.046;2023-04-10T06:58:56;58.53;;;32.50;;
35114;SDS011;21292;52.416;13.046;2023-04-10T07:01:24;55.55;;;31.15;;
35114;SDS011;21292;52.416;13.046;2023-04-10T07:03:52;51.42;;;30.05;;
35114;SDS011;21292;52.416;13.046;2023-04-10T07:06:21;54.60;;;30.65;;
35114;SDS011;21292;52.416;13.046;2023-04-10T07:08:49;47.28;;;28.77;;
35114;SDS011;21292;52.416;13.046;2023-04-10T07:11:19;48.17;;;28.17;;
35114;SDS011;21292;52.416;13.046;2023-04-10T07:13:47;41.00;;;25.23;;
35114;SDS011;21292;52.416;13.046;2023-04-10T07:16:19;48.03;;;27.33;;
35114;SDS011;21292;52.416;13.046;2023-04-10T07:18:47;41.28;;;26.17;;
35114;SDS011;21292;52.416;13.046;2023-04-10T07:21:15;44.47;;;26.50;;
35114;SDS011;21292;52.416;13.046;2023-04-10T07:23:43;53.55;;;26.98;;
35114;SDS011;21292;52.416;13.046;2023-04-10T07:26:12;44.67;;;26.73;;
35114;SDS011;21292;52.416;13.046;2023-04-10T07:28:41;40.97;;;25.88;;
35114;SDS011;21292;52.416;13.046;2023-04-10T07:31:10;47.55;;;27.60;;
35114;SDS011;21292;52.416;13.046;2023-04-10T07:33:39;41.40;;;26.20;;
35114;SDS011;21292;52.416;13.046;2023-04-10T07:36:08;45.05;;;26.58;;
35114;SDS011;21292;52.416;13.046;2023-04-10T07:38:36;42.40;;;25.85;;
35114;SDS011;21292;52.416;13.046;2023-04-10T07:41:05;40.25;;;25.77;;
35114;SDS011;21292;52.416;13.046;2023-04-10T07:43:33;42.38;;;26.38;;
35114;SDS011;21292;52.416;13.046;2023-04-10T07:46:03;39.83;;;25.92;;
35114;SDS011;21292;52.416;13.046;2023-04-10T07:48:31;39.47;;;25.90;;
35114;SDS011;21292;52.416;13.046;2023-04-10T07:51:00;46.05;;;29.38;;
35114;SDS011;21292;52.416;13.046;2023-04-10T07:53:28;38.72;;;26.17;;
35114;SDS011;21292;52.416;13.046;2023-04-10T07:55:57;41.05;;;27.15;;
35114;SDS011;21292;52.416;13.046;2023-04-10T07:58:25;43.13;;;26.27;;
35114;SDS011;21292;52.416;13.046;2023-04-10T08:00:53;39.08;;;26.88;;
35114;SDS011;21292;52.416;13.046;2023-04-10T08:03:23;40.88;;;26.10;;
35114;SDS011;21292;52.416;13.046;2023-04-10T08:05:51;41.60;;;27.02;;
35114;SDS011;21292;52.416;13.046;2023-04-10T08:08:19;43.22;;;28.85;;
35114;SDS011;21292;52.416;13.046;2023-04-10T08:10:47;38.58;;;25.85;;
35114;SDS011;21292;52.416;13.046;2023-04-10T08:13:16;41.47;;;26.75;;
35114;SDS011;21292;52.416;13.046;2023-04-10T08:15:44;43.03;;;27.08;;
35114;SDS011;21292;52.416;13.046;2023-04-10T08:18:12;41.05;;;26.20;;
35114;SDS011;21292;52.416;13.046;2023-04-10T08:20:41;40.30;;;27.00;;
35114;SDS011;21292;52.416;13.046;2023-04-10T08:23:10;40.47;;;25.92;;
35114;SDS011;21292;52.416;13.046;2023-04-10T08:25:45;39.53;;;25.67;;
35114;SDS011;21292;52.416;13.046;2023-04-10T08:28:13;38.55;;;26.38;;
35114;SDS011;21292;52.416;13.046;2023-04-10T08:30:41;35.90;;;25.63;;
35114;SDS011;21292;52.416;13.046;2023-04-10T08:33:10;36.45;;;26.17;;
35114;SDS011;21292;52.416;13.046;2023-04-10T08:35:38;35.30;;;26.80;;
35114;SDS011;21292;52.416;13.046;2023-04-10T08:38:08;39.95;;;27.50;;
35114;SDS011;21292;52.416;13.046;2023-04-10T08:40:40;39.92;;;26.58;;
35114;SDS011;21292;52.416;13.046;2023-04-10T08:43:10;34.05;;;24.48;;
35114;SDS011;21292;52.416;13.046;2023-04-10T08:45:39;36.53;;;24.20;;
35114;SDS011;21292;52.416;13.046;2023-04-10T08:48:07;36.25;;;23.83;;
35114;SDS011;21292;52.416;13.046;2023-04-10T08:50:40;32.90;;;24.38;;
35114;SDS011;21292;52.416;13.046;2023-04-10T08:53:11;32.80;;;23.80;;
35114;SDS011;21292;52.416;13.046;2023-04-10T08:55:40;33.53;;;22.40;;
35114;SDS011;21292;52.416;13.046;2023-04-10T08:58:09;34.50;;;23.45;;
35114;SDS011;21292;52.416;13.046;2023-04-10T09:00:39;31.73;;;22.33;;
35114;SDS011;21292;52.416;13.046;2023-04-10T09:03:08;35.33;;;22.98;;
35114;SDS011;21292;52.416;13.046;2023-04-10T09:05:37;31.02;;;21.85;;
35114;SDS011;21292;52.416;13.046;2023-04-10T09:08:06;32.63;;;20.13;;
35114;SDS011;21292;52.416;13.046;2023-04-10T09:10:35;31.58;;;21.65;;
35114;SDS011;21292;52.416;13.046;2023-04-10T09:13:04;32.72;;;20.92;;
35114;SDS011;21292;52.416;13.046;2023-04-10T09:15:38;29.40;;;19.67;;
35114;SDS011;21292;52.416;13.046;2023-04-10T09:18:22;29.38;;;19.90;;
35114;SDS011;21292;52.416;13.046;2023-04-10T09:21:08;27.50;;;19.67;;
35114;SDS011;21292;52.416;13.046;2023-04-10T09:23:37;26.60;;;18.95;;
35114;SDS011;21292;52.416;13.046;2023-04-10T09:29:00;25.45;;;18.85;;
35114;SDS011;21292;52.416;13.046;2023-04-10T09:31:30;26.95;;;18.65;;
35114;SDS011;21292;52.416;13.046;2023-04-10T09:34:09;25.15;;;18.20;;
35114;SDS011;21292;52.416;13.046;2023-04-10T09:36:39;25.23;;;18.95;;
35114;SDS011;21292;52.416;13.046;2023-04-10T09:39:08;26.95;;;19.20;;
35114;SDS011;21292;52.416;13.046;2023-04-10T09:41:45;24.40;;;18.20;;
35114;SDS011;21292;52.416;13.046;2023-04-10T09:44:17;24.75;;;18.02;;
35114;SDS011;21292;52.416;13.046;2023-04-10T09:46:46;24.57;;;17.73;;
35114;SDS011;21292;52.416;13.046;2023-04-10T09:49:15;24.77;;;17.73;;
35114;SDS011;21292;52.416;13.046;2023-04-10T09:51:43;21.80;;;15.73;;
35114;SDS011;21292;52.416;13.046;2023-04-10T09:54:14;28.15;;;18.15;;
35114;SDS011;21292;52.416;13.046;2023-04-10T09:56:43;25.98;;;18.63;;
35114;SDS011;21292;52.416;13.046;2023-04-10T09:59:12;20.75;;;15.25;;
35114;SDS011;21292;52.416;13.046;2023-04-10T10:01:42;19.20;;;14.02;;
35114;SDS011;21292;52.416;13.046;2023-04-10T10:04:11;20.20;;;14.68;;
35114;SDS011;21292;52.416;13.046;2023-04-10T10:06:43;23.02;;;14.73;;
35114;SDS011;21292;52.416;13.046;2023-04-10T10:09:11;18.05;;;12.50;;
35114;SDS011;21292;52.416;13.046;2023-04-10T10:11:39;18.88;;;12.98;;
35114;SDS011;21292;52.416;13.046;2023-04-10T10:14:08;20.00;;;14.43;;
35114;SDS011;21292;52.416;13.046;2023-04-10T10:16:42;17.25;;;13.25;;
35114;SDS011;21292;52.416;13.046;2023-04-10T10:19:15;16.50;;;12.45;;
35114;SDS011;21292;52.416;13.046;2023-04-10T10:21:46;18.25;;;12.63;;
35114;SDS011;21292;52.416;13.046;2023-04-10T10:24:15;16.50;;;12.07;;
35114;SDS011;21292;52.416;13.046;2023-04-10T10:26:44;13.65;;;11.18;;
35114;SDS011;21292;52.416;13.046;2023-04-10T10:29:14;14.90;;;10.38;;
35114;SDS011;21292;52.416;13.046;2023-04-10T10:31:45;13.52;;;9.18;;
35114;SDS011;21292;52.416;13.046;2023-04-10T10:34:15;11.63;;;8.85;;
35114;SDS011;21292;52.416;13.046;2023-04-10T10:36:43;13.48;;;9.90;;
35114;SDS011;21292;52.416;13.046;2023-04-10T10:39:17;10.98;;;8.85;;
35114;SDS011;21292;52.416;13.046;2023-04-10T10:41:53;12.98;;;9.75;;
35114;SDS011;21292;52.416;13.046;2023-04-10T10:44:27;15.32;;;11.48;;
35114;SDS011;21292;52.416;13.046;2023-04-10T10:47:05;15.32;;;10.25;;
35114;SDS011;21292;52.416;13.046;2023-04-10T10:55:29;15.10;;;11.73;;
35114;SDS011;21292;52.416;13.046;2023-04-10T10:58:04;14.35;;;10.30;;
35114;SDS011;21292;52.416;13.046;2023-04-10T11:03:38;14.25;;;10.88;;
35114;SDS011;21292;52.416;13.046;2023-04-10T11:06:06;17.45;;;12.90;;
35114;SDS011;21292;52.416;13.046;2023-04-10T11:08:39;15.68;;;12.38;;
35114;SDS011;21292;52.416;13.046;2023-04-10T11:11:14;18.15;;;13.90;;
35114;SDS011;21292;52.416;13.046;2023-04-10T11:16:45;18.30;;;13.20;;
35114;SDS011;21292;52.416;13.046;2023-04-10T11:19:15;17.63;;;11.88;;
35114;SDS011;21292;52.416;13.046;2023-04-10T11:21:59;21.50;;;14.75;;
35114;SDS011;21292;52.416;13.046;2023-04-10T11:27:42;20.35;;;14.43;;
35114;SDS011;21292;52.416;13.046;2023-04-10T11:30:27;19.15;;;14.32;;
35114;SDS011;21292;52.416;13.046;2023-04-10T11:32:56;22.70;;;14.07;;
35114;SDS011;21292;52.416;13.046;2023-04-10T11:35:29;17.48;;;13.65;;
35114;SDS011;21292;52.416;13.046;2023-04-10T11:38:09;22.75;;;14.50;;
35114;SDS011;21292;52.416;13.046;2023-04-10T11:41:00;19.90;;;14.00;;
35114;SDS011;21292;52.416;13.046;2023-04-10T11:43:32;19.75;;;14.30;;
35114;SDS011;21292;52.416;13.046;2023-04-10T11:46:01;21.98;;;14.82;;
35114;SDS011;21292;52.416;13.046;2023-04-10T11:48:32;20.92;;;14.30;;
35114;SDS011;21292;52.416;13.046;2023-04-10T11:51:11;29.03;;;16.53;;
35114;SDS011;21292;52.416;13.046;2023-04-10T11:53:40;198.80;;;73.80;;
35114;SDS011;21292;52.416;13.046;2023-04-10T11:56:15;342.05;;;126.30;;
35114;SDS011;21292;52.416;13.046;2023-04-10T11:58:46;446.50;;;170.70;;
35114;SDS011;21292;52.416;13.046;2023-04-10T12:01:18;115.32;;;44.35;;
35114;SDS011;21292;52.416;13.046;2023-04-10T12:03:49;400.95;;;142.55;;
35114;SDS011;21292;52.416;13.046;2023-04-10T12:06:20;132.90;;;51.92;;
35114;SDS011;21292;52.416;13.046;2023-04-10T12:08:51;219.40;;;76.63;;
35114;SDS011;21292;52.416;13.046;2023-04-10T12:11:21;111.28;;;39.58;;
35114;SDS011;21292;52.416;13.046;2023-04-10T12:13:51;118.03;;;44.53;;
35114;SDS011;21292;52.416;13.046;2023-04-10T12:16:20;52.00;;;22.33;;
35114;SDS011;21292;52.416;13.046;2023-04-10T12:18:48;53.05;;;25.40;;
35114;SDS011;21292;52.416;13.046;2023-04-10T12:21:20;37.35;;;19.17;;
35114;SDS011;21292;52.416;13.046;2023-04-10T12:23:48;26.50;;;14.43;;
35114;SDS011;21292;52.416;13.046;2023-04-10T12:26:18;21.38;;;14.13;;
35114;SDS011;21292;52.416;13.046;2023-04-10T12:28:50;16.83;;;12.27;;
35114;SDS011;21292;52.416;13.046;2023-04-10T12:31:26;23.90;;;13.18;;
35114;SDS011;21292;52.416;13.046;2023-04-10T12:33:55;20.00;;;12.70;;
35114;SDS011;21292;52.416;13.046;2023-04-10T12:36:26;19.38;;;12.27;;
35114;SDS011;21292;52.416;13.046;2023-04-10T12:39:01;20.25;;;12.20;;
35114;SDS011;21292;52.416;13.046;2023-04-10T12:41:31;16.13;;;11.38;;
35114;SDS011;21292;52.416;13.046;2023-04-10T12:44:07;14.10;;;10.98;;
35114;SDS011;21292;52.416;13.046;2023-04-10T12:46:37;15.27;;;10.90;;
35114;SDS011;21292;52.416;13.046;2023-04-10T12:49:09;16.45;;;10.60;;
35114;SDS011;21292;52.416;13.046;2023-04-10T12:51:54;13.18;;;10.18;;
35114;SDS011;21292;52.416;13.046;2023-04-10T12:54:26;14.27;;;10.32;;
35114;SDS011;21292;52.416;13.046;2023-04-10T12:56:56;15.93;;;11.20;;
35114;SDS011;21292;52.416;13.046;2023-04-10T12:59:25;18.15;;;10.77;;
35114;SDS011;21292;52.416;13.046;2023-04-10T13:01:53;16.67;;;11.93;;
35114;SDS011;21292;52.416;13.046;2023-04-10T13:04:22;17.42;;;11.88;;
35114;SDS011;21292;52.416;13.046;2023-04-10T13:06:51;14.35;;;11.10;;
35114;SDS011;21292;52.416;13.046;2023-04-10T13:09:23;16.08;;;10.63;;
35114;SDS011;21292;52.416;13.046;2023-04-10T13:11:52;14.50;;;11.27;;
35114;SDS011;21292;52.416;13.046;2023-04-10T13:14:21;15.40;;;10.55;;
35114;SDS011;21292;52.416;13.046;2023-04-10T13:16:52;12.60;;;9.85;;
35114;SDS011;21292;52.416;13.046;2023-04-10T13:19:20;13.63;;;10.20;;
35114;SDS011;21292;52.416;13.046;2023-04-10T13:21:48;15.80;;;10.18;;
35114;SDS011;21292;52.416;13.046;2023-04-10T13:24:20;14.80;;;10.18;;
35114;SDS011;21292;52.416;13.046;2023-04-10T13:26:49;12.82;;;9.85;;
35114;SDS011;21292;52.416;13.046;2023-04-10T13:29:20;13.93;;;9.50;;
35114;SDS011;21292;52.416;13.046;2023-04-10T13:31:49;13.95;;;9.70;;
35114;SDS011;21292;52.416;13.046;2023-04-10T13:34:17;15.82;;;10.88;;
35114;SDS011;21292;52.416;13.046;2023-04-10T13:36:45;15.07;;;10.52;;
35114;SDS011;21292;52.416;13.046;2023-04-10T13:39:16;14.65;;;11.25;;
35114;SDS011;21292;52.416;13.046;2023-04-10T13:41:46;12.20;;;9.75;;
35114;SDS011;21292;52.416;13.046;2023-04-10T13:44:14;12.35;;;10.00;;
35114;SDS011;21292;52.416;13.046;2023-04-10T13:46:43;14.10;;;9.77;;
35114;SDS011;21292;52.416;13.046;2023-04-10T13:49:12;13.98;;;10.27;;
35114;SDS011;21292;52.416;13.046;2023-04-10T13:51:43;14.15;;;10.02;;
35114;SDS011;21292;52.416;13.046;2023-04-10T13:54:11;14.35;;;11.00;;
35114;SDS011;21292;52.416;13.046;2023-04-10T13:56:39;14.80;;;10.93;;
35114;SDS011;21292;52.416;13.046;2023-04-10T13:59:09;14.25;;;10.88;;
35114;SDS011;21292;52.416;13.046;2023-04-10T14:01:37;15.43;;;11.13;;
35114;SDS011;21292;52.416;13.046;2023-04-10T14:04:06;14.90;;;11.02;;
35114;SDS011;21292;52.416;13.046;2023-04-10T14:06:35;17.90;;;11.25;;
35114;SDS011;21292;52.416;13.046;2023-04-10T14:09:03;15.80;;;11.20;;
35114;SDS011;21292;52.416;13.046;2023-04-10T14:11:32;16.70;;;11.25;;
35114;SDS011;21292;52.416;13.046;2023-04-10T14:14:03;15.68;;;11.15;;
35114;SDS011;21292;52.416;13.046;2023-04-10T14:16:33;12.65;;;10.35;;
35114;SDS011;21292;52.416;13.046;2023-04-10T14:19:04;15.85;;;10.50;;
35114;SDS011;21292;52.416;13.046;2023-04-10T14:21:32;15.65;;;10.32;;
35114;SDS011;21292;52.416;13.046;2023-04-10T14:24:00;14.90;;;10.95;;
35114;SDS011;21292;52.416;13.046;2023-04-10T14:26:29;14.07;;;10.68;;
35114;SDS011;21292;52.416;13.046;2023-04-10T14:28:58;15.43;;;10.65;;
35114;SDS011;21292;52.416;13.046;2023-04-10T14:31:26;17.20;;;11.80;;
35114;SDS011;21292;52.416;13.046;2023-04-10T14:33:58;16.88;;;10.48;;
35114;SDS011;21292;52.416;13.046;2023-04-10T14:36:27;14.52;;;11.25;;
35114;SDS011;21292;52.416;13.046;2023-04-10T14:38:55;13.43;;;9.88;;